Wilkes Barre Scranton International Airport
KAVP : rendu visible

Aérodrome :











RETROUVEZ-NOUS SUR...

 
LOGIN :

S'inscrire | Disclaimer

   EN    FR    IT 

 









Légende :    VFR   VFR Marginal   IFR   IFR Intensif   IFR Très Intensif
Visi : 
Plafond : 
>= 8 km
>= 3000ft
5 à 8 km
1000 à 3000 ft
1500m à 5 km
500 à 1000 ft
800 à 1500m
200 à 500 ft
< 800m
< 200 ft
Symboles :   Orages  Brouillard  Fortes neiges  Fortes précipitations  Vent > 20 kt






- Altitude de l'aérodrome : 962 ft
- Code IATA : AVP


KAVP - Wilkes Barre Scranton International

DERNIER METAR :
  • 231854Z 23009G16KT 10SM CLR 11/M12 A3008 RMK AO2 SLP191 T01111122

METARs EXPIRÉS :
  • 231754Z 21010G15KT 10SM CLR 10/M12 A3012 RMK AO2 SLP202 T01001117 10100 21039 58023
  • 231654Z 23007KT 10SM CLR 09/M11 A3015 RMK AO2 SLP212 T00891111

TAF KAVP
Valide du 23 à 18h jusqu'au 24 à 18h UTC


231725Z 2318/2418 VRB04KT P6SM SKC



MET'MAP, la Météo Aéronautique d'un coup d'oeil ! - Copyright ORBIFLY Décembre 2007 - Disclaimer

ORBIFLY MET'MAP TEAM :

Programmation & Développement : Alexandra Zaïnal
Sur une idée originale de : Baudouin d'Aumeries
Assistance à la programmation : Marc-Olivier Méhu
Soutien technique & logistique : Manuel Goepfert

Contact : metmap@orbifly.com




SOURCES & CREDITS :

   NOAA       Earth
Advisory